createdAt,value
2022-10-05T00:00:53.519Z,98484.00
2022-10-05T00:02:56.242Z,98490.91
2022-10-05T00:04:59.450Z,98489.94
2022-10-05T00:07:09.693Z,98495.03
2022-10-05T00:09:20.860Z,98489.00
2022-10-05T00:11:23.180Z,98482.06
2022-10-05T00:13:28.851Z,98484.66
2022-10-05T00:15:31.118Z,98488.03
2022-10-05T00:17:33.329Z,98479.44
2022-10-05T00:19:37.204Z,98489.81
2022-10-05T00:21:39.244Z,98483.78
2022-10-05T00:23:41.462Z,98475.94
2022-10-05T00:25:43.534Z,98490.63
2022-10-05T00:27:53.910Z,98480.19
2022-10-05T00:30:00.387Z,98486.19
2022-10-05T00:32:02.932Z,98483.66
2022-10-05T00:34:05.194Z,98493.19
2022-10-05T00:36:07.748Z,98482.88
2022-10-05T00:38:09.867Z,98482.91
2022-10-05T00:40:32.313Z,98489.00
2022-10-05T00:42:46.445Z,98492.41
2022-10-05T00:45:13.403Z,98490.78
2022-10-05T00:47:45.952Z,98483.88
2022-10-05T00:50:00.580Z,98497.66
2022-10-05T00:52:20.417Z,98497.66
2022-10-05T00:54:25.500Z,98493.41
2022-10-05T00:56:49.875Z,98498.63
2022-10-05T00:59:10.883Z,98496.03
2022-10-05T01:01:23.045Z,98498.63
2022-10-05T01:03:50.772Z,98488.22
2022-10-05T01:06:16.624Z,98499.47
2022-10-05T01:08:47.892Z,98482.16
2022-10-05T01:11:06.655Z,98495.00
2022-10-05T01:13:45.792Z,98494.13
2022-10-05T01:16:19.616Z,98492.50
2022-10-05T01:18:27.778Z,98501.06
2022-10-05T01:20:45.082Z,98501.03
2022-10-05T01:23:02.087Z,98502.75
2022-10-05T01:25:19.840Z,98501.88
2022-10-05T01:28:15.744Z,98502.75
2022-10-05T01:30:20.702Z,98507.25
2022-10-05T01:32:39.811Z,98493.44
2022-10-05T01:35:02.542Z,98491.72
2022-10-05T01:37:42.143Z,98494.25
2022-10-05T01:39:54.529Z,98496.88
2022-10-05T01:42:08.269Z,98496.84
2022-10-05T01:44:20.261Z,98492.50
2022-10-05T01:46:50.389Z,98503.66
2022-10-05T01:49:19.886Z,98492.34
2022-10-05T01:51:43.347Z,98501.06
2022-10-05T01:54:03.671Z,98504.56
2022-10-05T01:56:23.694Z,98494.22
2022-10-05T01:58:37.198Z,98500.22
2022-10-05T02:01:04.315Z,98502.81
2022-10-05T02:03:15.334Z,98498.63
2022-10-05T02:05:26.435Z,98515.03
2022-10-05T02:07:44.078Z,98500.34
2022-10-05T02:10:13.222Z,98514.16
2022-10-05T02:12:20.064Z,98506.34
2022-10-05T02:14:44.947Z,98495.13
2022-10-05T02:16:49.531Z,98509.06
2022-10-05T02:19:01.348Z,98508.09
2022-10-05T02:21:05.481Z,98509.00
2022-10-05T02:23:23.447Z,98511.56
2022-10-05T02:25:31.416Z,98502.03
2022-10-05T02:27:38.605Z,98502.94
2022-10-05T02:29:46.914Z,98505.47
2022-10-05T02:32:05.092Z,98511.50
2022-10-05T02:34:26.725Z,98514.16
2022-10-05T02:36:36.553Z,98507.38
2022-10-05T02:39:04.791Z,98515.88
2022-10-05T02:41:14.259Z,98512.41
2022-10-05T02:43:31.101Z,98518.47
2022-10-05T02:45:49.911Z,98522.84
2022-10-05T02:48:07.582Z,98519.44
2022-10-05T02:50:16.474Z,98523.75
2022-10-05T02:52:27.204Z,98518.50
2022-10-05T02:55:03.075Z,98515.88
2022-10-05T02:57:23.255Z,98504.69
2022-10-05T02:59:43.920Z,98508.19
2022-10-05T03:02:05.132Z,98515.09
2022-10-05T03:04:37.386Z,98517.72
2022-10-05T03:07:06.566Z,98523.84
2022-10-05T03:09:10.050Z,98530.88
2022-10-05T03:11:25.547Z,98525.63
2022-10-05T03:13:54.632Z,98518.69
2022-10-05T03:15:56.776Z,98525.66
2022-10-05T03:18:20.253Z,98523.94
2022-10-05T03:20:25.249Z,98528.31
2022-10-05T03:22:32.840Z,98534.38
2022-10-05T03:24:51.956Z,98518.78
2022-10-05T03:27:09.060Z,98523.94
2022-10-05T03:29:32.312Z,98537.78
2022-10-05T03:32:00.719Z,98535.19
2022-10-05T03:34:21.988Z,98537.78
2022-10-05T03:36:55.761Z,98536.91
2022-10-05T03:39:14.504Z,98524.88
2022-10-05T03:41:43.844Z,98536.09
2022-10-05T03:44:04.777Z,98546.44
2022-10-05T03:46:25.061Z,98541.22
2022-10-05T03:48:56.624Z,98534.34
2022-10-05T03:51:14.897Z,98542.97
2022-10-05T03:53:28.416Z,98540.38
2022-10-05T03:55:57.145Z,98547.34
2022-10-05T03:58:06.193Z,98542.19
2022-10-05T04:00:16.148Z,98545.63
2022-10-05T04:02:37.290Z,98546.50
2022-10-05T04:05:14.339Z,98539.50
2022-10-05T04:07:43.742Z,98547.25
2022-10-05T04:09:51.282Z,98539.50
2022-10-05T04:12:09.016Z,98546.31
2022-10-05T04:14:17.886Z,98543.75
2022-10-05T04:16:29.958Z,98548.13
2022-10-05T04:18:37.557Z,98548.13
2022-10-05T04:20:52.272Z,98542.03
2022-10-05T04:23:10.233Z,98548.84
2022-10-05T04:25:24.121Z,98545.44
2022-10-05T04:27:34.694Z,98554.06
2022-10-05T04:29:39.940Z,98552.34
2022-10-05T04:32:15.989Z,98549.75
2022-10-05T04:34:31.503Z,98557.53
2022-10-05T04:36:46.044Z,98551.41
2022-10-05T04:38:55.412Z,98556.63
2022-10-05T04:41:15.019Z,98564.41
2022-10-05T04:43:20.782Z,98561.78
2022-10-05T04:45:37.668Z,98558.25
2022-10-05T04:47:56.159Z,98556.56
2022-10-05T04:50:07.901Z,98564.28
2022-10-05T04:52:32.136Z,98558.16
2022-10-05T04:54:56.767Z,98566.00
2022-10-05T04:57:13.208Z,98559.09
2022-10-05T04:59:39.595Z,98559.97
2022-10-05T05:01:59.423Z,98555.53
2022-10-05T05:04:17.027Z,98558.97
2022-10-05T05:06:32.666Z,98567.50
2022-10-05T05:09:20.272Z,98564.00
2022-10-05T05:11:55.935Z,98570.00
2022-10-05T05:14:17.103Z,98569.97
2022-10-05T05:16:44.214Z,98568.97
2022-10-05T05:18:50.688Z,98558.63
2022-10-05T05:21:04.933Z,98572.34
2022-10-05T05:23:31.200Z,98574.00
2022-10-05T05:25:47.603Z,98573.09
2022-10-05T05:27:57.914Z,98566.94
2022-10-05T05:30:02.171Z,98562.47
2022-10-05T05:32:14.698Z,98564.97
2022-10-05T05:34:50.664Z,98563.03
2022-10-05T05:37:22.136Z,98567.34
2022-10-05T05:39:29.354Z,98568.16
2022-10-05T05:41:50.738Z,98557.72
2022-10-05T05:44:17.923Z,98568.88
2022-10-05T05:47:01.912Z,98576.66
2022-10-05T05:48:51.608Z,98579.94
2022-10-05T05:51:17.989Z,98578.91
2022-10-05T05:53:37.395Z,98577.19
2022-10-05T05:55:44.154Z,98585.81
2022-10-05T05:58:09.530Z,98577.88
2022-10-05T06:00:14.882Z,98587.38
2022-10-05T06:02:35.492Z,98580.44
2022-10-05T06:04:45.270Z,98583.09
2022-10-05T06:06:52.179Z,98580.38
2022-10-05T06:08:58.584Z,98587.25
2022-10-05T06:11:23.712Z,98599.16
2022-10-05T06:13:34.628Z,98591.97
2022-10-05T06:15:46.230Z,98594.34
2022-10-05T06:17:56.492Z,98596.81
2022-10-05T06:20:05.423Z,98592.94
2022-10-05T06:22:19.953Z,98585.88
2022-10-05T06:24:46.416Z,98605.72
2022-10-05T06:27:12.857Z,98604.88
2022-10-05T06:29:23.957Z,98611.09
2022-10-05T06:32:00.186Z,98608.59
2022-10-05T06:34:17.303Z,98610.38
2022-10-05T06:36:49.501Z,98610.94
2022-10-05T06:39:22.100Z,98616.63
2022-10-05T06:41:44.012Z,98612.81
2022-10-05T06:43:55.212Z,98611.50
2022-10-05T06:46:23.792Z,98610.34
2022-10-05T06:48:54.706Z,98625.03
2022-10-05T06:51:31.452Z,98627.09
2022-10-05T06:53:46.921Z,98627.69
2022-10-05T06:55:57.821Z,98633.41
2022-10-05T06:58:03.015Z,98635.38
2022-10-05T07:00:21.474Z,98635.56
2022-10-05T07:02:55.374Z,98640.78
2022-10-05T07:05:07.062Z,98642.28
2022-10-05T07:07:19.824Z,98642.00
2022-10-05T07:09:57.521Z,98647.09
2022-10-05T07:12:08.733Z,98647.16
2022-10-05T07:14:37.388Z,98651.72
2022-10-05T07:17:13.074Z,98650.97
2022-10-05T07:19:27.809Z,98652.06
2022-10-05T07:21:29.911Z,98658.38
2022-10-05T07:23:50.095Z,98656.84
2022-10-05T07:26:03.325Z,98640.66
2022-10-05T07:28:42.680Z,98656.22
2022-10-05T07:30:57.903Z,98660.69
2022-10-05T07:33:18.134Z,98654.66
2022-10-05T07:35:49.891Z,98661.56
2022-10-05T07:37:57.484Z,98657.25
2022-10-05T07:40:26.443Z,98656.31
2022-10-05T07:42:31.461Z,98673.38
2022-10-05T07:44:44.023Z,98664.56
2022-10-05T07:46:56.971Z,98673.88
2022-10-05T07:49:17.953Z,98682.22
2022-10-05T07:51:45.195Z,98688.94
2022-10-05T07:53:56.989Z,98678.50
2022-10-05T07:56:06.804Z,98673.41
2022-10-05T07:58:19.126Z,98688.91
2022-10-05T08:00:24.495Z,98687.00
2022-10-05T08:02:49.594Z,98693.88
2022-10-05T08:05:04.168Z,98692.94
2022-10-05T08:07:11.766Z,98694.66
2022-10-05T08:09:35.077Z,98695.25
2022-10-05T08:12:02.822Z,98696.91
2022-10-05T08:14:23.879Z,98705.59
2022-10-05T08:16:31.075Z,98710.66
2022-10-05T08:18:45.574Z,98706.00
2022-10-05T08:20:52.061Z,98703.88
2022-10-05T08:23:36.133Z,98701.47
2022-10-05T08:25:46.417Z,98713.59
2022-10-05T08:27:52.772Z,98709.19
2022-10-05T08:30:05.700Z,98716.13
2022-10-05T08:32:44.385Z,98706.13
2022-10-05T08:35:01.498Z,98712.66
2022-10-05T08:37:27.676Z,98712.50
2022-10-05T08:39:40.929Z,98712.56
2022-10-05T08:41:52.794Z,98714.78
2022-10-05T08:44:12.782Z,98711.91
2022-10-05T08:46:42.328Z,98717.41
2022-10-05T08:49:21.708Z,98710.38
2022-10-05T08:51:48.734Z,98714.63
2022-10-05T08:54:12.310Z,98711.91
2022-10-05T08:56:19.751Z,98715.94
2022-10-05T08:59:00.115Z,98715.66
2022-10-05T09:01:05.098Z,98718.94
2022-10-05T09:03:08.163Z,98713.28
2022-10-05T09:05:28.509Z,98715.41
2022-10-05T09:07:45.589Z,98721.91
2022-10-05T09:10:02.862Z,98724.69
2022-10-05T09:12:11.625Z,98722.16
2022-10-05T09:14:13.860Z,98726.38
2022-10-05T09:16:49.469Z,98725.19
2022-10-05T09:19:14.779Z,98727.41
2022-10-05T09:21:56.630Z,98733.75
2022-10-05T09:24:19.425Z,98741.13
2022-10-05T09:26:43.479Z,98745.66
2022-10-05T09:29:24.785Z,98752.88
2022-10-05T09:31:59.040Z,98745.41
2022-10-05T09:34:03.844Z,98755.66
2022-10-05T09:36:27.398Z,98763.00
2022-10-05T09:38:58.715Z,98749.53
2022-10-05T09:41:36.224Z,98760.09
2022-10-05T09:44:02.080Z,98767.97
2022-10-05T09:46:28.817Z,98769.59
2022-10-05T09:48:49.819Z,98769.16
2022-10-05T09:51:20.713Z,98761.72
2022-10-05T09:53:45.379Z,98769.03
2022-10-05T09:56:25.216Z,98762.34
2022-10-05T09:59:06.578Z,98771.94
2022-10-05T10:01:33.655Z,98770.56
2022-10-05T10:03:57.611Z,98773.00
2022-10-05T10:06:06.523Z,98778.72
2022-10-05T10:08:23.685Z,98785.72
2022-10-05T10:10:53.977Z,98791.28
2022-10-05T10:13:09.429Z,98779.69
2022-10-05T10:15:57.793Z,98791.56
2022-10-05T10:18:18.478Z,98800.38
2022-10-05T10:20:23.877Z,98805.56
2022-10-05T10:23:03.008Z,98804.41
2022-10-05T10:25:14.059Z,98803.16
2022-10-05T10:27:59.657Z,98805.34
2022-10-05T10:30:26.285Z,98802.50
2022-10-05T10:32:44.651Z,98805.22
2022-10-05T10:35:15.808Z,98808.06
2022-10-05T10:37:23.814Z,98804.94
2022-10-05T10:39:56.745Z,98812.13
2022-10-05T10:42:42.963Z,98814.00
2022-10-05T10:45:08.265Z,98818.38
2022-10-05T10:47:18.974Z,98809.50
2022-10-05T10:49:54.710Z,98818.50
2022-10-05T10:51:56.823Z,98815.34
2022-10-05T10:54:20.691Z,98816.38
2022-10-05T10:56:48.386Z,98818.97
2022-10-05T10:59:30.828Z,98820.69
2022-10-05T11:01:53.104Z,98815.53
2022-10-05T11:04:35.726Z,98820.97
2022-10-05T11:06:52.917Z,98818.69
2022-10-05T11:09:21.401Z,98812.66
2022-10-05T11:11:31.078Z,98820.44
2022-10-05T11:13:52.682Z,98830.19
2022-10-05T11:16:27.057Z,98833.84
2022-10-05T11:18:29.063Z,98843.53
2022-10-05T11:20:39.873Z,98847.78
2022-10-05T11:22:54.086Z,98854.56
2022-10-05T11:25:25.306Z,98845.72
2022-10-05T11:27:40.540Z,98856.06
2022-10-05T11:30:10.803Z,98863.50
2022-10-05T11:32:34.165Z,98862.25
2022-10-05T11:34:53.293Z,98876.63
2022-10-05T11:37:20.598Z,98871.63
2022-10-05T11:39:33.534Z,98871.63
2022-10-05T11:41:54.051Z,98870.19
2022-10-05T11:44:06.149Z,98871.16
2022-10-05T11:46:34.270Z,98869.38
2022-10-05T11:48:51.144Z,98878.53
2022-10-05T11:51:34.323Z,98875.66
2022-10-05T11:53:49.311Z,98886.09
2022-10-05T11:56:00.491Z,98888.59
2022-10-05T11:58:38.040Z,98883.09
2022-10-05T12:00:42.501Z,98894.75
2022-10-05T12:03:21.883Z,98900.06
2022-10-05T12:05:42.380Z,98898.13
2022-10-05T12:08:03.384Z,98904.66
2022-10-05T12:10:33.050Z,98900.78
2022-10-05T12:12:44.347Z,98897.78
2022-10-05T12:15:11.045Z,98891.16
2022-10-05T12:17:31.919Z,98903.19
2022-10-05T12:19:48.826Z,98908.00
2022-10-05T12:22:19.364Z,98913.53
2022-10-05T12:24:42.601Z,98906.78
2022-10-05T12:26:53.269Z,98915.59
2022-10-05T12:29:08.940Z,98913.97
2022-10-05T12:31:13.912Z,98915.84
2022-10-05T12:33:24.072Z,98923.78
2022-10-05T12:35:47.324Z,98917.16
2022-10-05T12:38:12.081Z,98919.41
2022-10-05T12:40:14.753Z,98924.13
2022-10-05T12:42:22.949Z,98919.09
2022-10-05T12:45:19.443Z,98928.03
2022-10-05T12:47:23.890Z,98928.13
2022-10-05T12:49:44.345Z,98927.00
2022-10-05T12:52:01.071Z,98931.97
2022-10-05T12:54:32.810Z,98930.03
2022-10-05T12:56:49.800Z,98930.06
2022-10-05T12:59:02.585Z,98924.25
2022-10-05T13:01:46.889Z,98925.47
2022-10-05T13:04:03.315Z,98923.94
2022-10-05T13:06:31.067Z,98930.22
2022-10-05T13:09:12.652Z,98927.56
2022-10-05T13:11:47.728Z,98936.22
2022-10-05T13:13:59.612Z,98936.38
2022-10-05T13:16:33.227Z,98920.91
2022-10-05T13:18:44.931Z,98935.88
2022-10-05T13:24:09.879Z,98938.13
2022-10-05T13:27:06.883Z,98940.03
2022-10-05T13:29:37.275Z,98944.41
2022-10-05T13:32:29.474Z,98940.84
2022-10-05T13:35:15.578Z,98949.97
2022-10-05T13:37:38.742Z,98950.22
2022-10-05T13:42:43.625Z,98956.72
2022-10-05T13:45:10.825Z,98953.50
2022-10-05T13:47:51.325Z,98957.97
2022-10-05T13:50:00.278Z,98959.16
2022-10-05T13:52:17.743Z,98956.69
2022-10-05T13:54:47.938Z,98956.88
2022-10-05T13:56:56.927Z,98949.19
2022-10-05T13:59:11.694Z,98961.34
2022-10-05T14:01:20.279Z,98959.63
2022-10-05T14:03:35.107Z,98968.31
2022-10-05T14:05:55.874Z,98963.19
2022-10-05T14:08:17.418Z,98972.03
2022-10-05T14:10:41.989Z,98971.34
2022-10-05T14:12:46.095Z,98975.03
2022-10-05T14:14:57.127Z,98981.25
2022-10-05T14:19:21.923Z,98993.66
2022-10-05T14:21:28.195Z,98984.31
2022-10-05T14:23:31.258Z,98987.00
2022-10-05T14:25:50.539Z,98987.16
2022-10-05T14:28:06.479Z,98987.28
2022-10-05T14:30:08.620Z,98999.56
2022-10-05T14:32:22.499Z,99002.28
2022-10-05T14:34:32.232Z,99005.88
2022-10-05T14:36:44.062Z,98992.97
2022-10-05T14:38:57.914Z,98998.25
2022-10-05T14:41:20.621Z,99002.69
2022-10-05T14:43:22.673Z,99008.06
2022-10-05T14:45:30.003Z,99003.81
2022-10-05T14:47:32.426Z,99003.91
2022-10-05T14:49:38.383Z,99002.22
2022-10-05T14:51:42.365Z,99002.34
2022-10-05T14:53:56.165Z,99011.00
2022-10-05T14:56:23.148Z,99009.38
2022-10-05T14:58:51.815Z,99012.09
2022-10-05T15:01:18.432Z,99013.91
2022-10-05T15:03:51.045Z,99019.22
2022-10-05T15:05:58.970Z,99015.91
2022-10-05T15:08:31.373Z,99021.16
2022-10-05T15:10:52.481Z,99026.47
2022-10-05T15:12:58.428Z,99016.97
2022-10-05T15:15:14.231Z,99027.41
2022-10-05T15:17:50.871Z,99030.00
2022-10-05T15:20:15.207Z,99031.75
2022-10-05T15:22:18.805Z,99033.53
2022-10-05T15:24:34.269Z,99033.63
2022-10-05T15:26:49.226Z,99047.47
2022-10-05T15:29:11.888Z,99051.78
2022-10-05T15:31:32.064Z,99044.84
2022-10-05T15:33:51.463Z,99048.38
2022-10-05T15:36:00.761Z,99061.44
2022-10-05T15:38:05.754Z,99064.00
2022-10-05T15:40:36.740Z,99043.16
2022-10-05T15:42:43.122Z,99054.44
2022-10-05T15:45:06.544Z,99065.66
2022-10-05T15:47:26.729Z,99057.78
2022-10-05T15:49:47.398Z,99069.03
2022-10-05T15:52:06.187Z,99073.34
2022-10-05T15:54:43.285Z,99068.97
2022-10-05T15:57:20.995Z,99075.06
2022-10-05T15:59:42.497Z,99075.97
2022-10-05T16:01:51.981Z,99079.47
2022-10-05T16:04:23.286Z,99077.69
2022-10-05T16:07:03.749Z,99088.09
2022-10-05T16:09:33.194Z,99087.25
2022-10-05T16:11:47.252Z,99092.41
2022-10-05T16:14:14.905Z,99089.81
2022-10-05T16:16:33.987Z,99092.41
2022-10-05T16:18:41.956Z,99087.25
2022-10-05T16:20:53.069Z,99080.34
2022-10-05T16:22:59.728Z,99084.69
2022-10-05T16:25:09.756Z,99087.31
2022-10-05T16:27:36.669Z,99088.22
2022-10-05T16:29:51.767Z,99090.91
2022-10-05T16:32:04.476Z,99095.31
2022-10-05T16:34:26.435Z,99092.78
2022-10-05T16:36:49.448Z,99087.69
2022-10-05T16:39:03.617Z,99091.22
2022-10-05T16:41:17.896Z,99098.22
2022-10-05T16:43:22.792Z,99093.94
2022-10-05T16:45:45.326Z,99095.72
2022-10-05T16:47:57.539Z,99100.09
2022-10-05T16:50:17.886Z,99099.25
2022-10-05T16:52:23.612Z,99094.09
2022-10-05T16:54:45.430Z,99095.81
2022-10-05T16:57:27.561Z,99101.91
2022-10-05T16:59:57.091Z,99115.81
2022-10-05T17:02:24.597Z,99116.69
2022-10-05T17:04:35.369Z,99113.19
2022-10-05T17:06:54.189Z,99115.78
2022-10-05T17:09:15.233Z,99113.16
2022-10-05T17:11:20.838Z,99119.19
2022-10-05T17:13:43.607Z,99119.19
2022-10-05T17:16:22.258Z,99116.59
2022-10-05T17:18:30.805Z,99115.69
2022-10-05T17:20:47.408Z,99116.56
2022-10-05T17:22:52.392Z,99128.69
2022-10-05T17:25:39.224Z,99131.25
2022-10-05T17:28:37.316Z,99127.81
2022-10-05T17:31:22.017Z,99129.53
2022-10-05T17:33:31.716Z,99133.88
2022-10-05T17:36:01.059Z,99130.38
2022-10-05T17:38:22.581Z,99126.06
2022-10-05T17:41:10.206Z,99128.63
2022-10-05T17:43:16.574Z,99132.97
2022-10-05T17:45:21.722Z,99126.91
2022-10-05T17:47:58.831Z,99139.03
2022-10-05T17:50:19.867Z,99117.38
2022-10-05T17:52:45.852Z,99135.59
2022-10-05T17:55:06.948Z,99143.41
2022-10-05T17:57:09.296Z,99140.78
2022-10-05T17:59:12.557Z,99111.31
2022-10-05T18:01:48.307Z,99134.72
2022-10-05T18:03:52.129Z,99128.66
2022-10-05T18:06:29.483Z,99141.69
2022-10-05T18:08:41.091Z,99140.84
2022-10-05T18:11:35.687Z,99146.09
2022-10-05T18:13:45.553Z,99140.03
2022-10-05T18:15:49.380Z,99142.63
2022-10-05T18:18:42.576Z,99143.50
2022-10-05T18:21:13.847Z,99142.66
2022-10-05T18:23:22.127Z,99143.50
2022-10-05T18:25:36.042Z,99162.63
2022-10-05T18:28:04.245Z,99150.50
2022-10-05T18:30:22.081Z,99159.19
2022-10-05T18:32:37.689Z,99164.44
2022-10-05T18:35:03.390Z,99157.50
2022-10-05T18:37:37.406Z,99169.66
2022-10-05T18:40:21.530Z,99154.03
2022-10-05T18:42:52.316Z,99160.97
2022-10-05T18:45:06.721Z,99162.72
2022-10-05T18:47:39.441Z,99156.59
2022-10-05T18:50:13.397Z,99166.13
2022-10-05T18:52:40.601Z,99167.81
2022-10-05T18:55:03.617Z,99158.28
2022-10-05T18:57:50.985Z,99147.00
2022-10-05T19:00:24.800Z,99155.66
2022-10-05T19:02:57.841Z,99160.84
2022-10-05T19:05:35.768Z,99160.84
2022-10-05T19:07:40.474Z,99153.91
2022-10-05T19:09:42.640Z,99152.19
2022-10-05T19:11:55.312Z,99159.97
2022-10-05T19:13:58.814Z,99156.53
2022-10-05T19:16:38.574Z,99164.38
2022-10-05T19:19:06.610Z,99157.47
2022-10-05T19:21:33.204Z,99154.00
2022-10-05T19:23:38.438Z,99157.50
2022-10-05T19:25:49.476Z,99155.75
2022-10-05T19:31:29.072Z,99174.00
2022-10-05T19:34:09.975Z,99169.66
2022-10-05T19:36:44.250Z,99164.44
2022-10-05T19:39:15.566Z,99160.97
2022-10-05T19:41:29.946Z,99158.38
2022-10-05T19:43:57.002Z,99165.31
2022-10-05T19:46:17.667Z,99163.56
2022-10-05T19:48:33.330Z,99169.66
2022-10-05T19:50:38.695Z,99162.72
2022-10-05T19:52:49.114Z,99160.97
2022-10-05T19:55:14.764Z,99163.56
2022-10-05T19:57:19.299Z,99163.53
2022-10-05T19:59:27.692Z,99173.09
2022-10-05T20:01:34.105Z,99175.69
2022-10-05T20:03:38.664Z,99175.69
2022-10-05T20:05:41.254Z,99168.72
2022-10-05T20:07:43.552Z,99180.88
2022-10-05T20:09:53.677Z,99173.06
2022-10-05T20:11:56.823Z,99164.38
2022-10-05T20:14:01.855Z,99169.56
2022-10-05T20:16:31.746Z,99173.03
2022-10-05T20:19:01.356Z,99167.81
2022-10-05T20:21:03.789Z,99167.84
2022-10-05T20:23:18.753Z,99179.97
2022-10-05T20:25:20.819Z,99185.22
2022-10-05T20:27:55.137Z,99175.66
2022-10-05T20:29:58.179Z,99168.72
2022-10-05T20:32:00.604Z,99180.84
2022-10-05T20:34:03.192Z,99179.97
2022-10-05T20:36:05.510Z,99182.56
2022-10-05T20:38:08.369Z,99173.88
2022-10-05T20:40:11.173Z,99193.00
2022-10-05T20:42:14.230Z,99180.81
2022-10-05T20:44:16.489Z,99179.09
2022-10-05T20:46:18.636Z,99198.19
2022-10-05T20:48:20.924Z,99193.81
2022-10-05T20:50:23.176Z,99183.38
2022-10-05T20:52:25.747Z,99183.38
2022-10-05T20:54:28.274Z,99183.38
2022-10-05T20:56:30.701Z,99178.16
2022-10-05T20:58:33.603Z,99185.06
2022-10-05T21:00:54.094Z,99179.84
2022-10-05T21:02:56.926Z,99185.06
2022-10-05T21:04:59.305Z,99186.84
2022-10-05T21:07:06.169Z,99193.78
2022-10-05T21:09:11.714Z,99193.75
2022-10-05T21:11:14.730Z,99189.41
2022-10-05T21:13:18.588Z,99182.44
2022-10-05T21:15:31.858Z,99198.91
2022-10-05T21:17:34.946Z,99189.38
2022-10-05T21:19:40.613Z,99195.44
2022-10-05T21:21:45.419Z,99170.25
2022-10-05T21:23:51.643Z,99184.97
2022-10-05T21:25:54.216Z,99194.53
2022-10-05T21:27:56.584Z,99191.03
2022-10-05T21:29:59.520Z,99191.88
2022-10-05T21:32:02.333Z,99194.47
2022-10-05T21:34:05.016Z,99190.16
2022-10-05T21:36:07.427Z,99188.41
2022-10-05T21:38:11.466Z,99192.75
2022-10-05T21:40:13.858Z,99192.78
2022-10-05T21:42:15.965Z,99198.84
2022-10-05T21:44:19.719Z,99203.19
2022-10-05T21:46:26.508Z,99204.94
2022-10-05T21:48:31.286Z,99204.03
2022-10-05T21:50:34.975Z,99199.72
2022-10-05T21:52:37.954Z,99211.00
2022-10-05T21:54:41.244Z,99207.50
2022-10-05T21:56:50.950Z,99213.56
2022-10-05T21:58:53.353Z,99211.00
2022-10-05T22:00:58.621Z,99220.56
2022-10-05T22:03:00.844Z,99217.94
2022-10-05T22:05:03.353Z,99217.06
2022-10-05T22:07:18.866Z,99224.00
2022-10-05T22:09:21.644Z,99222.28
2022-10-05T22:11:23.993Z,99224.00
2022-10-05T22:13:26.745Z,99225.78
2022-10-05T22:15:30.479Z,99226.66
2022-10-05T22:17:33.169Z,99229.22
2022-10-05T22:19:35.496Z,99223.19
2022-10-05T22:21:41.995Z,99231.88
2022-10-05T22:23:46.158Z,99228.41
2022-10-05T22:25:48.790Z,99232.75
2022-10-05T22:27:51.460Z,99237.06
2022-10-05T22:29:55.539Z,99237.94
2022-10-05T22:31:57.939Z,99228.38
2022-10-05T22:34:00.554Z,99233.56
2022-10-05T22:36:06.169Z,99231.00
2022-10-05T22:38:08.450Z,99227.47
2022-10-05T22:40:12.193Z,99228.34
2022-10-05T22:42:14.513Z,99224.88
2022-10-05T22:44:23.234Z,99223.13
2022-10-05T22:46:25.508Z,99226.63
2022-10-05T22:48:27.986Z,99229.19
2022-10-05T22:50:30.620Z,99226.59
2022-10-05T22:52:33.357Z,99227.47
2022-10-05T22:54:37.948Z,99234.41
2022-10-05T22:56:41.086Z,99230.94
2022-10-05T22:58:44.278Z,99223.97
2022-10-05T23:00:58.052Z,99223.94
2022-10-05T23:03:01.838Z,99223.06
2022-10-05T23:05:05.029Z,99226.47
2022-10-05T23:07:07.181Z,99220.41
2022-10-05T23:09:09.322Z,99225.59
2022-10-05T23:11:20.978Z,99236.88
2022-10-05T23:13:23.081Z,99229.03
2022-10-05T23:15:25.767Z,99226.44
2022-10-05T23:17:28.587Z,99227.28
2022-10-05T23:19:30.660Z,99235.09
2022-10-05T23:21:32.905Z,99228.16
2022-10-05T23:23:38.602Z,99240.34
2022-10-05T23:25:40.813Z,99226.47
2022-10-05T23:27:43.519Z,99229.03
2022-10-05T23:29:45.787Z,99226.44
2022-10-05T23:31:47.836Z,99230.78
2022-10-05T23:33:50.197Z,99226.47
2022-10-05T23:36:02.743Z,99229.03
2022-10-05T23:38:04.955Z,99231.66
2022-10-05T23:40:11.079Z,99240.31
2022-10-05T23:42:14.476Z,99234.22
2022-10-05T23:44:16.587Z,99233.34
2022-10-05T23:46:18.820Z,99235.06
2022-10-05T23:48:21.687Z,99239.44
2022-10-05T23:50:25.205Z,99241.19
2022-10-05T23:52:27.524Z,99235.09
2022-10-05T23:54:29.540Z,99237.72
2022-10-05T23:56:31.800Z,99241.19
2022-10-05T23:58:41.228Z,99240.28
